Time;durP1;ratioP1;P1;durP2;ratioP2;P2;SDS_P1;SDS_P2;PMS_P1;PMS_P2;Temp;Humidity;BMP_temperature;BMP_pressure;BME280_temperature;BME280_humidity;BME280_pressure;Samples;Min_cycle;Max_cycle;Signal;HPM_P1;HPM_P2
2022/07/23 00:01:17;;;;;;;1.33;0.73;;;16.40;99.90;;;;;;4974654;28;20067;-73
2022/07/23 00:03:44;;;;;;;1.33;1.00;;;16.40;99.90;;;;;;4975154;28;20037;-74
2022/07/23 00:06:10;;;;;;;1.88;0.98;;;16.50;99.90;;;;;;4974698;28;20038;-72
2022/07/23 00:08:36;;;;;;;2.83;0.68;;;16.50;99.90;;;;;;4974390;28;20066;-73
2022/07/23 00:11:01;;;;;;;1.77;0.90;;;16.50;99.90;;;;;;4974459;28;20035;-73
2022/07/23 00:13:27;;;;;;;6.97;0.93;;;16.40;99.90;;;;;;4973993;28;20057;-74
2022/07/23 00:15:53;;;;;;;4.00;1.52;;;16.30;99.90;;;;;;4974177;28;20042;-73
2022/07/23 00:18:19;;;;;;;1.83;0.95;;;16.40;99.90;;;;;;4974240;28;20078;-73
2022/07/23 00:20:44;;;;;;;2.95;1.33;;;16.40;99.90;;;;;;4974070;28;20026;-73
2022/07/23 00:23:10;;;;;;;3.13;1.10;;;16.40;99.90;;;;;;4974615;28;20030;-73
2022/07/23 00:25:36;;;;;;;1.40;0.80;;;16.30;99.90;;;;;;4974113;28;20085;-73
2022/07/23 00:28:04;;;;;;;2.45;1.15;;;16.30;99.90;;;;;;4974191;28;20023;-74
2022/07/23 00:30:31;;;;;;;3.78;0.90;;;16.30;99.90;;;;;;4973899;28;20027;-73
2022/07/23 00:33:03;;;;;;;4.10;0.95;;;16.30;99.90;;;;;;4973946;28;20031;-73
2022/07/23 00:35:31;;;;;;;5.15;1.00;;;16.30;99.90;;;;;;4973907;28;20021;-73
2022/07/23 00:37:58;;;;;;;2.60;1.13;;;16.30;99.90;;;;;;4974261;28;20091;-73
2022/07/23 00:40:24;;;;;;;6.07;1.70;;;16.30;99.90;;;;;;4973966;28;20024;-73
2022/07/23 00:42:51;;;;;;;1.45;0.80;;;16.30;99.90;;;;;;4973620;28;20094;-74
2022/07/23 00:45:17;;;;;;;5.25;1.17;;;16.30;99.90;;;;;;4973854;28;20484;-74
2022/07/23 00:47:43;;;;;;;6.90;1.35;;;16.20;99.90;;;;;;4973859;28;20038;-73
2022/07/23 00:50:10;;;;;;;9.25;1.33;;;16.30;99.90;;;;;;4973480;28;20019;-73
2022/07/23 00:52:37;;;;;;;3.85;1.45;;;16.30;99.90;;;;;;4973436;28;20034;-72
2022/07/23 00:55:07;;;;;;;1.23;0.80;;;16.20;99.90;;;;;;4973893;28;20027;-72
2022/07/23 00:57:33;;;;;;;3.72;1.35;;;16.20;99.90;;;;;;4973632;28;20030;-73
2022/07/23 00:59:59;;;;;;;1.73;0.98;;;16.20;99.90;;;;;;4973732;28;20034;-73
2022/07/23 01:02:25;;;;;;;2.85;0.63;;;16.10;99.90;;;;;;4973233;28;20031;-73
2022/07/23 01:04:51;;;;;;;1.02;0.70;;;16.20;99.90;;;;;;4973319;28;20027;-72
2022/07/23 01:07:18;;;;;;;0.93;0.82;;;16.20;99.90;;;;;;4973947;28;20042;-73
2022/07/23 01:09:45;;;;;;;0.85;0.65;;;16.10;99.90;;;;;;4973549;28;20038;-73
2022/07/23 01:12:11;;;;;;;1.30;0.60;;;16.10;99.90;;;;;;4973326;28;20043;-73
2022/07/23 01:14:37;;;;;;;0.52;0.52;;;16.00;99.90;;;;;;4973254;28;20789;-73
2022/07/23 01:17:03;;;;;;;2.97;0.98;;;16.00;99.90;;;;;;4972970;28;20382;-72
2022/07/23 01:19:28;;;;;;;2.80;1.40;;;16.00;99.90;;;;;;4973392;28;20019;-72
2022/07/23 01:21:57;;;;;;;5.50;0.85;;;15.90;99.90;;;;;;4973274;28;20036;-73
2022/07/23 01:24:23;;;;;;;0.77;0.75;;;16.00;99.90;;;;;;4973044;28;20034;-72
2022/07/23 01:26:49;;;;;;;0.95;0.50;;;15.90;99.90;;;;;;4972967;28;20028;-73
2022/07/23 01:29:16;;;;;;;0.68;0.60;;;15.90;99.90;;;;;;4973347;28;20027;-73
2022/07/23 01:31:43;;;;;;;1.67;0.95;;;15.80;99.90;;;;;;4973329;28;20599;-72
2022/07/23 01:34:09;;;;;;;1.55;1.08;;;15.80;99.90;;;;;;4973302;28;20023;-72
2022/07/23 01:36:35;;;;;;;1.98;1.08;;;15.90;99.90;;;;;;4972933;28;20106;-73
2022/07/23 01:39:02;;;;;;;1.35;0.80;;;15.80;99.90;;;;;;4973043;28;20113;-72
2022/07/23 01:41:28;;;;;;;6.47;1.05;;;15.80;99.90;;;;;;4973285;28;20108;-72
2022/07/23 01:43:53;;;;;;;2.35;1.38;;;15.70;99.90;;;;;;4972958;28;20035;-73
2022/07/23 01:46:19;;;;;;;2.13;1.08;;;15.70;99.90;;;;;;4972828;28;20027;-73
2022/07/23 01:48:45;;;;;;;5.47;1.15;;;15.70;99.90;;;;;;4973180;28;20031;-74
2022/07/23 01:51:10;;;;;;;3.47;1.08;;;15.60;99.90;;;;;;4973493;28;20087;-73
2022/07/23 01:53:36;;;;;;;2.30;1.10;;;15.70;99.90;;;;;;4973044;28;20031;-73
2022/07/23 01:56:03;;;;;;;5.78;1.55;;;15.60;99.90;;;;;;4972824;28;20170;-74
2022/07/23 01:58:29;;;;;;;1.77;1.30;;;15.60;99.90;;;;;;4973076;28;20117;-73
2022/07/23 02:00:55;;;;;;;2.53;1.10;;;15.60;99.90;;;;;;4972622;28;20023;-73
2022/07/23 02:03:21;;;;;;;1.85;1.35;;;15.60;99.90;;;;;;4973447;28;20058;-74
2022/07/23 02:05:47;;;;;;;4.78;1.20;;;15.60;99.90;;;;;;4975319;28;20035;-72
2022/07/23 02:08:13;;;;;;;3.15;1.05;;;15.60;99.90;;;;;;4976631;28;20041;-74
2022/07/23 02:10:38;;;;;;;1.27;1.00;;;15.60;99.90;;;;;;4977021;28;20050;-72
2022/07/23 02:13:04;;;;;;;7.47;1.50;;;15.60;99.90;;;;;;4975793;28;20051;-72
2022/07/23 02:15:30;;;;;;;0.60;0.60;;;15.50;99.90;;;;;;4976770;28;20034;-72
2022/07/23 02:17:55;;;;;;;2.58;1.10;;;15.60;99.90;;;;;;4976827;28;20039;-73
2022/07/23 02:20:22;;;;;;;3.45;1.20;;;15.50;99.90;;;;;;4976287;28;20384;-73
2022/07/23 02:22:47;;;;;;;1.90;1.48;;;15.60;99.90;;;;;;4976640;28;20046;-74
2022/07/23 02:25:13;;;;;;;4.88;1.15;;;15.50;99.90;;;;;;4976311;28;20033;-73
2022/07/23 02:27:39;;;;;;;12.23;1.60;;;15.50;99.90;;;;;;4958716;28;20094;-73
2022/07/23 02:30:06;;;;;;;7.57;1.23;;;15.50;99.90;;;;;;4958005;28;20031;-73
2022/07/23 02:32:35;;;;;;;2.45;1.45;;;15.50;99.90;;;;;;4976637;28;20395;-73
2022/07/23 02:35:01;;;;;;;0.90;0.88;;;15.40;99.90;;;;;;4976195;28;20022;-73
2022/07/23 02:37:27;;;;;;;1.73;1.30;;;15.50;99.90;;;;;;4958771;28;20036;-72
2022/07/23 02:39:54;;;;;;;1.00;0.57;;;15.60;99.90;;;;;;4976364;28;20091;-73
2022/07/23 02:42:20;;;;;;;2.38;1.02;;;15.40;99.90;;;;;;4975884;28;20090;-73
2022/07/23 02:44:46;;;;;;;4.13;1.67;;;15.40;99.90;;;;;;4976386;28;20047;-72
2022/07/23 02:47:11;;;;;;;3.45;0.90;;;15.40;99.90;;;;;;4976086;28;20042;-73
2022/07/23 02:49:37;;;;;;;3.95;1.55;;;15.50;99.90;;;;;;4975580;28;20183;-73
2022/07/23 02:52:03;;;;;;;2.25;1.40;;;15.40;99.90;;;;;;4975939;28;20036;-72
2022/07/23 02:54:30;;;;;;;0.85;0.85;;;15.40;99.90;;;;;;4975800;28;20019;-73
2022/07/23 02:56:55;;;;;;;1.67;1.10;;;15.50;99.90;;;;;;4975428;28;20043;-72
2022/07/23 02:59:21;;;;;;;2.70;1.30;;;15.40;99.90;;;;;;4975876;28;20019;-72
2022/07/23 03:01:47;;;;;;;1.70;1.10;;;15.40;99.90;;;;;;4975838;28;20134;-73
2022/07/23 03:04:12;;;;;;;6.22;1.65;;;15.50;99.90;;;;;;4957920;28;20027;-73
2022/07/23 03:06:38;;;;;;;1.80;1.13;;;15.40;99.90;;;;;;4975774;28;20028;-72
2022/07/23 03:09:05;;;;;;;2.63;1.42;;;15.30;99.90;;;;;;4975355;28;20111;-73
2022/07/23 03:11:31;;;;;;;3.70;1.52;;;15.30;99.90;;;;;;4974707;28;20085;-73
2022/07/23 03:13:57;;;;;;;2.72;1.58;;;15.30;99.90;;;;;;4975540;28;20104;-72
2022/07/23 03:16:22;;;;;;;2.63;1.52;;;15.30;99.90;;;;;;4974660;28;20035;-73
2022/07/23 03:18:48;;;;;;;2.97;1.42;;;15.30;99.90;;;;;;4976516;28;20035;-73
2022/07/23 03:21:14;;;;;;;2.58;1.25;;;15.20;99.90;;;;;;4975953;28;20046;-72
2022/07/23 03:23:40;;;;;;;2.08;1.30;;;15.20;99.90;;;;;;4975562;28;20037;-73
2022/07/23 03:26:05;;;;;;;2.58;1.55;;;15.20;99.90;;;;;;4975223;28;20086;-72
2022/07/23 03:28:31;;;;;;;3.00;1.52;;;15.30;99.90;;;;;;4957728;28;20030;-72
2022/07/23 03:30:57;;;;;;;2.88;1.40;;;15.20;99.90;;;;;;4975297;28;20026;-72
2022/07/23 03:33:23;;;;;;;6.72;2.17;;;15.20;99.90;;;;;;4975067;28;20090;-72
2022/07/23 03:35:49;;;;;;;2.55;1.92;;;15.20;99.90;;;;;;4975114;28;20118;-73
2022/07/23 03:38:14;;;;;;;2.65;1.60;;;15.20;99.90;;;;;;4974913;28;20082;-72
2022/07/23 03:40:40;;;;;;;4.40;1.10;;;15.20;99.90;;;;;;4974952;28;20039;-72
2022/07/23 03:43:06;;;;;;;20.38;2.50;;;15.20;99.90;;;;;;4975212;28;20029;-73
2022/07/23 03:45:32;;;;;;;4.60;1.58;;;15.20;99.90;;;;;;4974380;28;20027;-73
2022/07/23 03:47:58;;;;;;;3.75;1.25;;;15.20;99.90;;;;;;4974828;28;20035;-73
2022/07/23 03:50:28;;;;;;;3.13;1.95;;;15.20;99.90;;;;;;4974842;28;20023;-73
2022/07/23 03:52:53;;;;;;;3.40;1.42;;;15.20;99.90;;;;;;4974742;28;20027;-72
2022/07/23 03:55:19;;;;;;;3.10;1.52;;;15.20;99.90;;;;;;4974903;28;20027;-74
2022/07/23 03:57:45;;;;;;;2.05;1.42;;;15.20;99.90;;;;;;4974506;28;20094;-73
2022/07/23 04:00:12;;;;;;;1.80;1.10;;;15.20;99.90;;;;;;4974607;28;20457;-72
2022/07/23 04:02:38;;;;;;;7.32;1.30;;;15.20;99.90;;;;;;4974566;28;20067;-72
2022/07/23 04:05:04;;;;;;;1.25;1.05;;;15.20;99.90;;;;;;4974451;28;20523;-73
2022/07/23 04:07:30;;;;;;;2.15;1.42;;;15.10;99.90;;;;;;4974188;28;20046;-72
2022/07/23 04:09:56;;;;;;;2.13;0.95;;;15.20;99.90;;;;;;4974486;28;20055;-72
2022/07/23 04:12:21;;;;;;;2.58;1.65;;;15.10;99.90;;;;;;4974004;28;20047;-71
2022/07/23 04:14:47;;;;;;;2.45;1.20;;;15.10;99.90;;;;;;4974250;28;20496;-70
2022/07/23 04:17:13;;;;;;;4.53;2.10;;;15.10;99.90;;;;;;4974476;28;20046;-72
2022/07/23 04:19:43;;;;;;;5.28;2.00;;;15.10;99.90;;;;;;4974271;28;20065;-71
2022/07/23 04:22:12;;;;;;;14.30;2.25;;;15.10;99.90;;;;;;4974123;28;20023;-72
2022/07/23 04:24:38;;;;;;;2.63;1.77;;;15.10;99.90;;;;;;4973823;28;20061;-72
2022/07/23 04:27:04;;;;;;;3.33;1.67;;;15.10;99.90;;;;;;4973384;28;20383;-72
2022/07/23 04:29:30;;;;;;;4.35;1.92;;;15.00;99.90;;;;;;4973569;28;20023;-71
2022/07/23 04:31:55;;;;;;;2.28;1.17;;;15.10;99.90;;;;;;4974263;28;20059;-71
2022/07/23 04:34:22;;;;;;;3.25;1.60;;;15.00;99.90;;;;;;4973971;28;20028;-71
2022/07/23 04:36:47;;;;;;;2.45;1.58;;;15.00;99.90;;;;;;4973779;28;20050;-73
2022/07/23 04:39:13;;;;;;;2.47;1.52;;;15.10;99.90;;;;;;4973946;28;20035;-72
2022/07/23 04:41:39;;;;;;;3.15;1.52;;;15.00;99.90;;;;;;4974084;28;20037;-71
2022/07/23 04:44:05;;;;;;;7.88;2.53;;;15.00;99.90;;;;;;4974626;28;20495;-72
2022/07/23 04:46:30;;;;;;;8.30;2.08;;;15.00;99.90;;;;;;4974336;28;20087;-72
2022/07/23 04:48:56;;;;;;;4.53;2.17;;;15.00;99.90;;;;;;4973838;28;20034;-72
2022/07/23 04:51:22;;;;;;;1.83;1.20;;;15.00;99.90;;;;;;4975235;28;20045;-71
2022/07/23 04:53:47;;;;;;;2.78;1.38;;;14.90;99.90;;;;;;4974439;28;20720;-72
2022/07/23 04:56:13;;;;;;;4.55;1.85;;;14.90;99.90;;;;;;4972885;28;20053;-72
2022/07/23 04:58:39;;;;;;;5.05;2.10;;;15.00;99.90;;;;;;4972302;28;20834;-73
2022/07/23 05:01:05;;;;;;;1.92;1.30;;;15.00;99.90;;;;;;4974532;28;20043;-73
2022/07/23 05:03:30;;;;;;;1.92;1.55;;;14.90;99.90;;;;;;4974804;28;20025;-74
2022/07/23 05:05:56;;;;;;;4.95;1.98;;;14.90;99.90;;;;;;4973850;28;20062;-73
2022/07/23 05:08:22;;;;;;;4.78;1.52;;;15.00;99.90;;;;;;4973461;28;20456;-72
2022/07/23 05:10:48;;;;;;;9.10;2.45;;;15.00;99.90;;;;;;4955622;28;20035;-73
2022/07/23 05:13:17;;;;;;;3.58;1.65;;;14.90;99.90;;;;;;4971930;28;20054;-74
2022/07/23 05:15:44;;;;;;;3.88;1.80;;;15.00;99.90;;;;;;4973437;28;20035;-74
2022/07/23 05:18:10;;;;;;;6.20;1.88;;;15.00;99.90;;;;;;4973947;28;20086;-73
2022/07/23 05:20:35;;;;;;;6.63;2.47;;;15.10;99.90;;;;;;4974390;28;20039;-72
2022/07/23 05:23:01;;;;;;;2.13;1.38;;;15.10;99.90;;;;;;4956056;28;20077;-71
2022/07/23 05:25:27;;;;;;;3.00;1.45;;;15.20;99.90;;;;;;4973484;28;20094;-70
2022/07/23 05:27:52;;;;;;;1.42;0.98;;;15.20;99.90;;;;;;4973846;28;20494;-72
2022/07/23 05:30:18;;;;;;;2.97;1.42;;;15.20;99.90;;;;;;4973404;28;20090;-71
2022/07/23 05:32:43;;;;;;;3.58;1.90;;;15.30;99.90;;;;;;4974280;28;20050;-72
2022/07/23 05:35:09;;;;;;;3.00;1.67;;;15.30;99.90;;;;;;4974163;28;20031;-72
2022/07/23 05:37:35;;;;;;;3.47;1.38;;;15.40;99.90;;;;;;4974488;28;20074;-71
2022/07/23 05:40:02;;;;;;;2.25;1.38;;;15.40;99.90;;;;;;4977729;28;20387;-72
2022/07/23 05:42:28;;;;;;;2.28;1.48;;;15.50;99.90;;;;;;4980129;28;20035;-71
2022/07/23 05:44:53;;;;;;;2.83;1.55;;;15.50;99.90;;;;;;4980457;28;20031;-72
2022/07/23 05:47:19;;;;;;;2.15;1.20;;;15.60;99.90;;;;;;4980078;28;20041;-72
2022/07/23 05:49:45;;;;;;;8.93;1.27;;;15.60;99.90;;;;;;4979654;28;20042;-73
2022/07/23 05:52:11;;;;;;;1.30;0.98;;;15.60;99.90;;;;;;4980739;28;20030;-72
2022/07/23 05:54:36;;;;;;;2.47;1.05;;;15.60;99.90;;;;;;4980783;28;20027;-72
2022/07/23 05:57:03;;;;;;;4.72;1.85;;;15.70;99.90;;;;;;4981357;28;20046;-70
2022/07/23 05:59:28;;;;;;;2.88;1.13;;;15.80;99.90;;;;;;4979298;28;20050;-72
2022/07/23 06:01:55;;;;;;;1.55;0.98;;;15.90;99.90;;;;;;4979540;28;20408;-73
2022/07/23 06:04:21;;;;;;;2.33;1.13;;;16.00;99.90;;;;;;4981151;28;20038;-71
2022/07/23 06:06:47;;;;;;;6.18;1.17;;;16.00;99.90;;;;;;4979478;28;20027;-71
2022/07/23 06:09:13;;;;;;;3.42;1.25;;;16.00;99.90;;;;;;4979859;28;20034;-72
2022/07/23 06:11:40;;;;;;;1.02;0.73;;;16.00;99.90;;;;;;4979694;28;20510;-73
2022/07/23 06:14:06;;;;;;;2.33;1.08;;;16.10;99.90;;;;;;4979178;28;20061;-74
2022/07/23 06:16:32;;;;;;;4.05;1.35;;;16.10;99.90;;;;;;4979910;28;20395;-73
2022/07/23 06:18:57;;;;;;;1.73;0.90;;;16.20;99.90;;;;;;4979282;28;20030;-72
2022/07/23 06:21:23;;;;;;;8.27;1.58;;;16.20;99.90;;;;;;4980169;28;20035;-72
2022/07/23 06:23:49;;;;;;;1.75;0.98;;;16.30;99.90;;;;;;4979786;28;20392;-72
2022/07/23 06:26:15;;;;;;;1.08;0.80;;;16.30;99.90;;;;;;4978941;28;20031;-74
2022/07/23 06:28:40;;;;;;;1.35;0.80;;;16.40;99.90;;;;;;4979277;28;20031;-74
2022/07/23 06:31:06;;;;;;;4.53;1.27;;;16.40;99.90;;;;;;4979342;28;20032;-72
2022/07/23 06:33:31;;;;;;;1.48;0.60;;;16.40;99.90;;;;;;4979362;28;20041;-73
2022/07/23 06:35:57;;;;;;;1.40;0.50;;;16.50;99.90;;;;;;4979365;28;20522;-71
2022/07/23 06:38:22;;;;;;;2.22;0.73;;;16.60;99.90;;;;;;4961978;28;20028;-74
2022/07/23 06:40:48;;;;;;;2.15;0.80;;;16.60;99.90;;;;;;4961515;28;20077;-74
2022/07/23 06:43:13;;;;;;;1.15;0.73;;;16.70;99.90;;;;;;4979155;28;20372;-72
2022/07/23 06:45:39;;;;;;;0.60;0.35;;;16.80;99.90;;;;;;4978908;28;20038;-71
2022/07/23 06:48:05;;;;;;;2.38;1.02;;;16.80;99.90;;;;;;4978849;28;20043;-71
2022/07/23 06:50:30;;;;;;;4.60;1.13;;;16.90;99.90;;;;;;4977965;28;20023;-72
2022/07/23 06:52:56;;;;;;;1.90;0.85;;;17.00;99.90;;;;;;4976236;28;20039;-70
2022/07/23 06:55:22;;;;;;;1.38;0.60;;;17.00;99.90;;;;;;4975676;28;20104;-72
2022/07/23 06:57:47;;;;;;;1.42;0.65;;;17.00;99.90;;;;;;4976606;28;20081;-74
2022/07/23 07:00:13;;;;;;;4.00;0.73;;;17.00;99.90;;;;;;4976807;28;20034;-74
2022/07/23 07:02:39;;;;;;;3.50;0.85;;;17.00;99.90;;;;;;4975898;28;20103;-73
2022/07/23 07:05:05;;;;;;;1.40;0.80;;;17.00;99.90;;;;;;4975588;28;20031;-72
2022/07/23 07:07:31;;;;;;;0.60;0.50;;;17.10;99.90;;;;;;4975863;28;20058;-72
2022/07/23 07:09:56;;;;;;;0.68;0.52;;;17.10;99.90;;;;;;4975506;28;20023;-73
2022/07/23 07:12:22;;;;;;;1.92;1.15;;;17.20;99.90;;;;;;4977072;28;20039;-74
2022/07/23 07:14:48;;;;;;;9.10;1.05;;;17.20;99.90;;;;;;4958730;28;20061;-71
2022/07/23 07:17:15;;;;;;;1.88;0.63;;;17.10;99.90;;;;;;4957303;28;20043;-71
2022/07/23 07:19:40;;;;;;;3.30;0.55;;;17.10;99.90;;;;;;4975046;28;20032;-71
2022/07/23 07:22:06;;;;;;;2.25;0.57;;;17.10;99.90;;;;;;4975053;28;20118;-70
2022/07/23 07:24:32;;;;;;;1.38;0.55;;;17.20;99.90;;;;;;4974887;28;20027;-71
2022/07/23 07:26:57;;;;;;;2.13;0.50;;;17.20;99.90;;;;;;4975455;28;20069;-70
2022/07/23 07:29:23;;;;;;;0.55;0.32;;;17.30;99.90;;;;;;4975285;28;20070;-72
2022/07/23 07:31:48;;;;;;;0.32;0.25;;;17.30;99.90;;;;;;4975542;28;20595;-70
2022/07/23 07:34:14;;;;;;;1.20;0.50;;;17.30;99.90;;;;;;4975913;28;20036;-72
2022/07/23 07:36:39;;;;;;;0.57;0.40;;;17.30;99.90;;;;;;4977084;28;20553;-70
2022/07/23 07:39:06;;;;;;;1.02;0.43;;;17.40;99.90;;;;;;4975390;28;20472;-71
2022/07/23 07:41:32;;;;;;;0.50;0.30;;;17.40;99.90;;;;;;4976828;28;20031;-70
2022/07/23 07:43:57;;;;;;;0.40;0.20;;;17.40;99.90;;;;;;4975134;28;20114;-70
2022/07/23 07:46:23;;;;;;;0.65;0.43;;;17.40;99.90;;;;;;4975354;28;20034;-74
2022/07/23 07:48:50;;;;;;;0.95;0.70;;;17.40;99.90;;;;;;4975593;28;20027;-72
2022/07/23 07:51:16;;;;;;;1.65;0.65;;;17.40;99.90;;;;;;4974902;28;20023;-69
2022/07/23 07:53:41;;;;;;;1.25;0.47;;;17.40;99.90;;;;;;4957518;28;20031;-70
2022/07/23 07:56:07;;;;;;;0.60;0.30;;;17.40;99.90;;;;;;4974789;28;20066;-70
2022/07/23 07:58:32;;;;;;;0.63;0.32;;;17.50;99.90;;;;;;4974452;28;20041;-72
2022/07/23 08:00:58;;;;;;;0.30;0.20;;;17.50;99.90;;;;;;4974982;28;20035;-71
2022/07/23 08:03:24;;;;;;;1.55;0.43;;;17.50;99.90;;;;;;4975132;28;20041;-71
2022/07/23 08:05:49;;;;;;;1.05;0.52;;;17.60;99.90;;;;;;4974535;28;20034;-75
2022/07/23 08:08:15;;;;;;;2.10;0.57;;;17.70;99.90;;;;;;4976697;28;20040;-72
2022/07/23 08:10:41;;;;;;;1.48;0.40;;;17.70;99.90;;;;;;4975547;28;20067;-71
2022/07/23 08:13:07;;;;;;;2.50;0.57;;;17.70;99.90;;;;;;4957336;28;20487;-72
2022/07/23 08:15:32;;;;;;;8.00;0.95;;;17.80;99.90;;;;;;4957140;28;20081;-72
2022/07/23 08:17:59;;;;;;;0.32;0.28;;;17.90;99.90;;;;;;4974537;28;20105;-72
2022/07/23 08:20:25;;;;;;;0.28;0.25;;;17.90;99.90;;;;;;4974080;28;20046;-71
2022/07/23 08:22:57;;;;;;;1.08;0.30;;;18.00;99.90;;;;;;4959643;28;20027;-72
2022/07/23 08:25:29;;;;;;;1.20;0.30;;;18.00;99.90;;;;;;4973333;28;20122;-73
2022/07/23 08:27:56;;;;;;;2.08;0.43;;;18.10;99.90;;;;;;4973127;28;20054;-72
2022/07/23 08:30:22;;;;;;;3.15;0.70;;;18.20;99.90;;;;;;4974662;28;20039;-71
2022/07/23 08:33:02;;;;;;;7.75;0.38;;;18.20;99.90;;;;;;4957064;28;20045;-71
2022/07/23 08:35:32;;;;;;;4.78;0.68;;;18.40;99.90;;;;;;4975842;28;20031;-71
2022/07/23 08:38:00;;;;;;;0.60;0.40;;;18.50;99.90;;;;;;4975291;28;20035;-70
2022/07/23 08:40:28;;;;;;;4.10;0.98;;;18.50;99.90;;;;;;4956749;28;20035;-70
2022/07/23 08:42:53;;;;;;;0.63;0.28;;;18.50;99.90;;;;;;4975526;28;20049;-71
2022/07/23 08:45:21;;;;;;;0.63;0.40;;;18.60;99.90;;;;;;4975225;28;20027;-72
2022/07/23 08:47:56;;;;;;;1.10;0.20;;;18.70;99.90;;;;;;4973585;28;20094;-72
2022/07/23 08:50:23;;;;;;;0.22;0.20;;;18.80;99.90;;;;;;4973002;28;20054;-72
2022/07/23 08:52:50;;;;;;;0.40;0.30;;;18.80;99.90;;;;;;4973345;28;20035;-73
2022/07/23 08:55:18;;;;;;;0.28;0.20;;;18.90;99.90;;;;;;4974314;28;20019;-73
2022/07/23 08:57:43;;;;;;;0.43;0.28;;;18.80;99.90;;;;;;4955582;28;20067;-71
2022/07/23 09:00:09;;;;;;;5.35;0.30;;;18.90;99.90;;;;;;4973171;28;20754;-72
2022/07/23 09:02:40;;;;;;;0.50;0.40;;;18.90;99.90;;;;;;4973660;28;20042;-69
2022/07/23 09:05:06;;;;;;;0.13;0.13;;;18.90;99.90;;;;;;4974163;28;20040;-72
2022/07/23 09:07:32;;;;;;;1.13;0.30;;;18.90;99.90;;;;;;4973314;28;20081;-76
2022/07/23 09:10:11;;;;;;;0.65;0.20;;;18.80;99.90;;;;;;4955567;28;20023;-70
2022/07/23 09:12:37;;;;;;;1.13;0.55;;;18.70;99.90;;;;;;4973718;28;20082;-72
2022/07/23 09:15:06;;;;;;;1.25;0.43;;;18.70;99.90;;;;;;4975343;28;20035;-74
2022/07/23 09:17:38;;;;;;;12.18;1.17;;;18.60;99.90;;;;;;4975128;28;20186;-72
2022/07/23 09:20:15;;;;;;;0.52;0.30;;;18.80;99.90;;;;;;4974578;28;20030;-72
2022/07/23 09:22:48;;;;;;;0.35;0.20;;;18.90;99.90;;;;;;4974403;28;20047;-71
2022/07/23 09:25:19;;;;;;;0.22;0.20;;;19.00;99.90;;;;;;4958446;28;20473;-72
2022/07/23 09:27:56;;;;;;;0.90;0.40;;;19.20;99.90;;;;;;4973918;28;20100;-74
2022/07/23 09:30:24;;;;;;;1.75;0.55;;;19.30;99.90;;;;;;4973710;28;20058;-72
2022/07/23 09:33:11;;;;;;;0.28;0.25;;;19.30;99.90;;;;;;4975066;28;20023;-71
2022/07/23 09:35:58;;;;;;;0.13;0.10;;;19.30;99.90;;;;;;4973076;28;20027;-72
2022/07/23 09:38:24;;;;;;;1.65;0.20;;;19.30;99.90;;;;;;4957411;28;20105;-72
2022/07/23 09:41:10;;;;;;;0.20;0.20;;;19.20;99.90;;;;;;4973195;28;20026;-72
2022/07/23 09:43:35;;;;;;;0.00;0.00;;;19.30;99.90;;;;;;4973001;28;20523;-72
2022/07/23 09:46:24;;;;;;;0.25;0.13;;;19.30;99.90;;;;;;4973491;28;20037;-71
2022/07/23 09:48:56;;;;;;;0.82;0.40;;;19.50;99.90;;;;;;4974472;28;20041;-74
2022/07/23 09:51:37;;;;;;;3.67;0.52;;;19.50;99.90;;;;;;4972883;28;20055;-72
2022/07/23 09:54:04;;;;;;;0.25;0.25;;;19.50;99.90;;;;;;4973199;28;20524;-74
2022/07/23 09:56:32;;;;;;;0.50;0.30;;;19.70;99.90;;;;;;4956646;28;20039;-72
2022/07/23 09:59:07;;;;;;;8.82;0.45;;;19.80;99.90;;;;;;4974060;28;20054;-72
2022/07/23 10:01:33;;;;;;;0.20;0.20;;;19.80;99.90;;;;;;4975167;28;20026;-72
2022/07/23 10:03:59;;;;;;;0.28;0.10;;;19.70;99.90;;;;;;4974185;28;20027;-73
2022/07/23 10:06:26;;;;;;;0.30;0.30;;;19.60;99.90;;;;;;4973317;28;20020;-72
2022/07/23 10:08:55;;;;;;;0.00;0.00;;;19.50;99.90;;;;;;4955601;28;20027;-72
2022/07/23 10:11:20;;;;;;;0.08;0.08;;;19.40;99.90;;;;;;4973031;28;20088;-74
2022/07/23 10:13:56;;;;;;;0.65;0.35;;;19.40;99.90;;;;;;4973183;28;20039;-73
2022/07/23 10:16:22;;;;;;;6.03;0.50;;;19.30;99.90;;;;;;4973080;28;20043;-73
2022/07/23 10:18:48;;;;;;;0.35;0.22;;;19.30;99.90;;;;;;4972460;28;20069;-74
2022/07/23 10:21:24;;;;;;;0.10;0.10;;;19.40;99.90;;;;;;4955672;28;20035;-74
2022/07/23 10:24:12;;;;;;;0.30;0.28;;;19.40;99.90;;;;;;4956321;28;20038;-73
2022/07/23 10:27:01;;;;;;;0.22;0.20;;;19.30;99.90;;;;;;4974342;28;20027;-72
2022/07/23 10:29:53;;;;;;;0.10;0.00;;;19.30;99.90;;;;;;4958918;28;20031;-72
2022/07/23 10:32:29;;;;;;;3.70;0.38;;;19.30;99.90;;;;;;4968011;28;20098;-71
2022/07/23 10:35:37;;;;;;;0.25;0.15;;;19.30;99.90;;;;;;4977413;28;20118;-73
2022/07/23 10:38:13;;;;;;;0.45;0.22;;;19.40;99.90;;;;;;4978551;28;20042;-70
2022/07/23 10:40:54;;;;;;;0.20;0.10;;;19.40;99.90;;;;;;4976611;28;20027;-71
2022/07/23 10:43:20;;;;;;;0.30;0.20;;;19.50;99.90;;;;;;4978195;28;20033;-72
2022/07/23 10:45:45;;;;;;;0.38;0.15;;;19.60;99.90;;;;;;4975673;28;20102;-72
2022/07/23 10:48:29;;;;;;;0.73;0.22;;;19.60;99.90;;;;;;4976689;28;20074;-71
2022/07/23 10:51:13;;;;;;;0.70;0.32;;;19.80;99.90;;;;;;4975330;28;20031;-72
2022/07/23 10:53:51;;;;;;;0.10;0.10;;;19.90;99.90;;;;;;4974678;28;20042;-72
2022/07/23 10:56:38;;;;;;;0.43;0.30;;;19.90;99.90;;;;;;4977237;28;20102;-72
2022/07/23 10:59:04;;;;;;;1.15;0.40;;;20.00;99.90;;;;;;4914544;28;20523;-72
2022/07/23 11:01:39;;;;;;;0.13;0.10;;;20.10;99.90;;;;;;4975654;28;20041;-71
2022/07/23 11:04:07;;;;;;;0.10;0.10;;;20.20;99.90;;;;;;4976550;28;20097;-72
2022/07/23 11:06:48;;;;;;;1.33;0.20;;;20.20;99.90;;;;;;4974994;28;20023;-70
2022/07/23 11:09:43;;;;;;;0.73;0.38;;;20.40;99.90;;;;;;4975462;28;20042;-72
2022/07/23 11:12:27;;;;;;;0.10;0.10;;;20.50;99.90;;;;;;4975778;28;20050;-74
2022/07/23 11:15:07;;;;;;;0.53;0.30;;;20.80;99.90;;;;;;4975613;28;20023;-72
2022/07/23 11:17:38;;;;;;;0.73;0.40;;;21.00;99.90;;;;;;4975461;28;20183;-73
2022/07/23 11:20:11;;;;;;;0.00;0.00;;;21.00;99.90;;;;;;4975841;28;20035;-74
2022/07/23 11:22:43;;;;;;;0.73;0.30;;;20.90;99.90;;;;;;4975124;28;20049;-74
2022/07/23 11:25:14;;;;;;;0.60;0.28;;;21.00;99.90;;;;;;4975922;28;20035;-74
2022/07/23 11:27:42;;;;;;;0.20;0.20;;;21.00;99.90;;;;;;4974427;28;20059;-73
2022/07/23 11:30:09;;;;;;;0.30;0.30;;;21.00;99.90;;;;;;4973607;28;20164;-74
2022/07/23 11:32:40;;;;;;;0.20;0.20;;;20.90;99.90;;;;;;4975148;28;20511;-73
2022/07/23 11:35:27;;;;;;;0.25;0.25;;;20.80;99.90;;;;;;4958437;28;20050;-74
2022/07/23 11:38:02;;;;;;;0.20;0.20;;;20.80;99.90;;;;;;4975304;28;20043;-73
2022/07/23 11:40:28;;;;;;;1.98;0.30;;;20.80;99.90;;;;;;4976815;28;20049;-74
2022/07/23 11:43:06;;;;;;;0.45;0.30;;;20.70;99.90;;;;;;4975135;28;20395;-73
2022/07/23 11:45:46;;;;;;;1.75;0.45;;;20.70;99.90;;;;;;4975929;28;20054;-73
2022/07/23 11:48:25;;;;;;;4.88;0.70;;;20.60;99.90;;;;;;4975253;28;20035;-72
2022/07/23 11:50:52;;;;;;;1.73;0.50;;;20.50;99.90;;;;;;4975856;28;20041;-72
2022/07/23 11:53:45;;;;;;;1.50;0.43;;;20.60;99.90;;;;;;4974792;28;20038;-73
2022/07/23 11:56:11;;;;;;;1.63;0.50;;;20.70;99.90;;;;;;4970823;28;20051;-74
2022/07/23 11:58:38;;;;;;;0.30;0.20;;;20.70;99.90;;;;;;4973998;28;20034;-72
2022/07/23 12:01:03;;;;;;;5.97;0.15;;;21.00;99.90;;;;;;4974015;28;20038;-72
2022/07/23 12:03:29;;;;;;;0.17;0.17;;;21.10;99.90;;;;;;4974591;28;20042;-72
2022/07/23 12:05:59;;;;;;;1.00;0.25;;;21.10;99.90;;;;;;4974133;28;20102;-72
2022/07/23 12:08:25;;;;;;;0.45;0.30;;;21.00;99.90;;;;;;4956825;28;20036;-72
2022/07/23 12:10:51;;;;;;;0.10;0.10;;;21.10;99.90;;;;;;4973641;28;20037;-73
2022/07/23 12:13:20;;;;;;;0.00;0.00;;;21.20;99.90;;;;;;4973791;28;20074;-71
2022/07/23 12:15:49;;;;;;;0.45;0.30;;;21.20;99.90;;;;;;4972860;28;20070;-71
2022/07/23 12:18:18;;;;;;;1.55;0.30;;;21.00;99.90;;;;;;4973709;28;20102;-72
2022/07/23 12:20:47;;;;;;;0.30;0.30;;;20.90;99.90;;;;;;4974280;28;20027;-71
2022/07/23 12:23:16;;;;;;;0.50;0.40;;;20.70;99.90;;;;;;4957460;28;20026;-76
2022/07/23 12:25:44;;;;;;;0.55;0.40;;;20.60;99.90;;;;;;4973812;28;20668;-73
2022/07/23 12:28:14;;;;;;;0.15;0.15;;;20.70;99.90;;;;;;4973771;28;20045;-73
2022/07/23 12:30:48;;;;;;;0.20;0.10;;;20.90;99.90;;;;;;4973215;28;20086;-73
2022/07/23 12:33:29;;;;;;;;;;;20.90;99.90;;;;;;4974143;28;20034;-73
2022/07/23 12:35:57;;;;;;;2.30;0.30;;;21.20;99.90;;;;;;4974251;28;19914;-73
2022/07/23 12:38:25;;;;;;;0.15;0.15;;;21.70;99.90;;;;;;4973479;28;20040;-74
2022/07/23 12:40:59;;;;;;;0.60;0.32;;;22.10;99.90;;;;;;4956459;28;20126;-71
2022/07/23 12:43:33;;;;;;;0.57;0.35;;;22.50;99.90;;;;;;4955738;28;20392;-73
2022/07/23 12:46:06;;;;;;;0.93;0.45;;;22.60;99.90;;;;;;4973148;28;20050;-73
2022/07/23 12:48:36;;;;;;;0.22;0.20;;;22.40;99.90;;;;;;4972979;28;20050;-71
2022/07/23 12:51:03;;;;;;;0.68;0.35;;;22.20;99.90;;;;;;4973029;28;20026;-72
2022/07/23 12:53:36;;;;;;;1.65;0.52;;;22.00;99.90;;;;;;4973344;28;20027;-73